AirNav   Get $300 off a Bose A20
 
 437 users online  

MN80 The Pass Seaplane Base
Mound, Minnesota, USA

GOING TO MOUND?


FAA INFORMATION EFFECTIVE 23 MAY 2019

Location

FAA Identifier: MN80
Lat/Long: 44-54-51.7250N / 093-41-18.7210W
44-54.862083N / 093-41.312017W
44.9143681 / -93.6885336
(estimated)
Elevation: 930 ft. / 283 m (estimated)
Variation: 03E (1990)
From city: 2 miles S of MOUND, MN
Time zone: UTC -5 (UTC -6 during Standard Time)
Zip code: 55364

Seaplane Base Operations

Seaplane Base use: Private use. Permission required prior to landing
Activation date: 08/1994
Control tower: no
ARTCC: MINNEAPOLIS CENTER
FSS: PRINCETON FLIGHT SERVICE STATION
Attendance: UNATNDD
Wind indicator: yes
Segmented circle: no

Seaplane Base Communications

WX ASOS at FCM (11 nm SE): PHONE 952-941-4156
WX AWOS-3 at CFE (16 nm NW): 120.45 (763-684-0762)
WX ASOS at MIC (17 nm NE): PHONE 763-531-2343
WX AWOS-3 at GYL (19 nm SW): 119.625 (320-864-5830)
WX ASOS at MSP (20 nm E): PHONE 612-713-4174

Nearby radio navigation aids

VOR radial/distance  VOR name  Freq  Var
FCMr296/11.7FLYING CLOUD VOR/DME117.7001E
MSPr271/19.2MINNEAPOLIS VOR/DME115.3002E
GEPr218/19.3GOPHER VORTAC117.3006E
FGTr302/27.5FARMINGTON VORTAC115.7006E
DWNr101/34.1DARWIN VORTAC109.0007E

 
NDB name  Hdg/Dist  Freq  Var  ID
GLENCOE058/19.340703EGYL --. -.-- .-..
HOPEY271/31.840003EPPI .--. .--. ..
PRINCETON182/39.236803EPNM .--. -. --

Seaplane Base Services

Runway Information

Runway 16W/34W

Dimensions: 7000 x 750 ft. / 2134 x 229 m
Surface: water
RUNWAY 16W  RUNWAY 34W
Traffic pattern: leftleft
Obstructions: 100 ft. trees, 1070 ft. from runway150 ft. trees, 1070 ft. from runway

Runway 6W/24W

Dimensions: 5500 x 750 ft. / 1676 x 229 m
Surface: water
RUNWAY 6W  RUNWAY 24W
Traffic pattern: leftleft

Seaplane Base Ownership and Management from official FAA records

Ownership: Privately-owned
Owner: KURT OPHEIM
3895 CO RD 44
MINNETRISTA, MN 55364
Phone 612-472-3607
Manager: KURT OPHEIM
3895 CO RD 44
MINNETRISTA, MN 55364
Phone 612-472-3607

Seaplane Base Operational Statistics

Aircraft based on the field: 1
Single engine airplanes: 1
    

Instrument Procedures

There are no published instrument procedures at MN80.

Some nearby airports with instrument procedures:

KFCM - Flying Cloud Airport (11 nm SE)
KCFE - Buffalo Municipal Airport (16 nm NW)
KMIC - Crystal Airport (17 nm NE)
KGYL - Glencoe Municipal Airport (19 nm SW)
KMSP - Minneapolis-St Paul International/Wold-Chamberlain Airport (20 nm E)
 
Loc | Ops | Rwys | IFR | FBO | Links
Com | Nav | Svcs | Stats | Notes
Area around MN80 (The Pass Seaplane Base)
 
Road maps at: MapQuest Bing Google
 
Aerial photo
No photo
 
Sectional chart

 
Airport distance calculator
Flying to The Pass Seaplane Base? Find the distance to fly.

From to MN80

Sunrise and sunset
Times for 26-May-2019
 Local
(UTC-5)
 Zulu
(UTC)
Morning civil twilight05:0110:01
Sunrise05:3610:36
Sunset20:4701:47
Evening civil twilight21:2302:23

Current date and time
Zulu (UTC)  26-May-2019 06:12:34
Local (UTC-5)  26-May-2019 01:12:34
 
METAR
KFCM 
11nm SE 
260553Z AUTO 34005KT 10SM CLR 12/09 A3001 RMK AO2 SLP161 T01220089 10189 20117 402000117 53001
KCFE 
16nm NW 
260459Z AUTO 10SM CLR 11/08 A3004 RMK AO2
KMIC 
17nm NE 
260553Z AUTO 31004KT 10SM CLR 11/09 A3001 RMK AO2 SLP165 T01060089 10183 20106 402000106 53010
KMSP 
19nm E 
260553Z 32004KT 10SM FEW250 12/09 A3002 RMK AO2 SLP166 T01220089 10189 20122 402060122 53005
KGYL 
19nm SW 
260556Z AUTO 31003KT 10SM CLR 12/09 A3002 RMK AO2 T01160089 10185 20112
TAF
KMSP 
19nm E 
260520Z 2606/2712 VRB03KT P6SM SKC FM262100 05006KT P6SM SKC FM270300 07005KT P6SM BKN150
NOTAMs
Click for the latest NOTAMs
NOTAMs are issued by the DoD/FAA and will open in a separate window not controlled by AirNav.

 

 
 

Would you like to see your business listed on this page?

 If your business provides an interesting product or service to pilots, flight crews, aircraft, or users of the The Pass Seaplane Base, you should consider listing it here.  To start the listing process, click on the button below
 
Add a business
 

Other Pages about The Pass Seaplane Base

Update a link
 
Copyright © AirNav, LLC. All rights reserved. Privacy Policy  Contact